createdAt,value
2018-12-31T00:02:42.129Z,4.30
2018-12-31T00:05:21.341Z,5.80
2018-12-31T00:08:01.451Z,5.00
2018-12-31T00:10:41.481Z,5.70
2018-12-31T00:13:21.774Z,4.60
2018-12-31T00:16:01.651Z,4.90
2018-12-31T00:18:42.017Z,5.50
2018-12-31T00:21:21.808Z,4.70
2018-12-31T00:24:01.841Z,4.90
2018-12-31T00:26:41.947Z,4.50
2018-12-31T00:29:21.244Z,4.80
2018-12-31T00:32:01.202Z,4.90
2018-12-31T00:34:40.430Z,4.90
2018-12-31T00:37:20.611Z,4.80
2018-12-31T00:40:02.410Z,5.20
2018-12-31T00:42:41.584Z,4.90
2018-12-31T00:45:21.591Z,4.80
2018-12-31T00:48:02.082Z,4.80
2018-12-31T00:50:41.894Z,4.80
2018-12-31T00:53:21.863Z,4.80
2018-12-31T00:56:02.167Z,4.80
2018-12-31T00:58:42.319Z,5.10
2018-12-31T01:01:22.102Z,6.30
2018-12-31T01:04:02.007Z,4.80
2018-12-31T01:06:42.119Z,5.00
2018-12-31T01:09:21.554Z,4.70
2018-12-31T01:12:01.690Z,4.60
2018-12-31T01:14:41.321Z,4.60
2018-12-31T01:17:21.260Z,4.20
2018-12-31T01:20:01.178Z,4.70
2018-12-31T01:22:40.720Z,5.80
2018-12-31T01:25:20.434Z,4.90
2018-12-31T01:28:00.495Z,5.20
2018-12-31T01:30:40.708Z,4.60
2018-12-31T01:33:20.903Z,4.60
2018-12-31T01:36:01.182Z,4.70
2018-12-31T01:38:40.971Z,6.10
2018-12-31T01:41:20.806Z,4.50
2018-12-31T01:44:00.210Z,4.50
2018-12-31T01:46:39.559Z,5.00
2018-12-31T01:49:19.599Z,4.40
2018-12-31T01:51:59.546Z,4.40
2018-12-31T01:54:39.559Z,4.40
2018-12-31T01:57:19.710Z,4.40
2018-12-31T01:59:59.016Z,4.50
2018-12-31T02:02:38.860Z,4.30
2018-12-31T02:05:18.859Z,4.40
2018-12-31T02:07:58.925Z,4.40
2018-12-31T02:10:25.925Z,5.20
2018-12-31T02:13:12.442Z,4.50
2018-12-31T02:15:58.838Z,4.70
2018-12-31T02:18:25.853Z,4.50
2018-12-31T02:21:12.254Z,4.40
2018-12-31T02:23:58.990Z,5.50
2018-12-31T02:26:45.394Z,4.50
2018-12-31T02:29:31.786Z,4.70
2018-12-31T02:31:59.029Z,3.90
2018-12-31T02:34:45.587Z,4.40
2018-12-31T02:37:32.262Z,4.50
2018-12-31T02:40:18.683Z,4.80
2018-12-31T02:43:05.083Z,4.20
2018-12-31T02:45:32.227Z,4.80
2018-12-31T02:48:18.650Z,4.60
2018-12-31T02:51:05.330Z,4.60
2018-12-31T02:53:51.994Z,6.00
2018-12-31T02:56:38.507Z,4.40
2018-12-31T02:59:25.154Z,4.50
2018-12-31T03:02:11.568Z,4.60
2018-12-31T03:04:51.565Z,4.10
2018-12-31T03:07:31.547Z,4.50
2018-12-31T03:10:11.779Z,4.60
2018-12-31T03:12:51.741Z,4.20
2018-12-31T03:15:30.959Z,4.50
2018-12-31T03:18:10.131Z,4.30
2018-12-31T03:20:50.351Z,4.60
2018-12-31T03:23:30.072Z,4.40
2018-12-31T03:26:09.996Z,4.60
2018-12-31T03:28:50.386Z,4.60
2018-12-31T03:31:30.418Z,4.00
2018-12-31T03:33:57.448Z,5.70
2018-12-31T03:36:43.857Z,4.60
2018-12-31T03:39:30.290Z,5.10
2018-12-31T03:42:16.698Z,4.60
2018-12-31T03:45:03.845Z,4.60
2018-12-31T03:47:30.700Z,4.70
2018-12-31T03:50:17.213Z,4.60
2018-12-31T03:53:03.732Z,4.70
2018-12-31T03:55:30.597Z,5.20
2018-12-31T03:58:17.007Z,4.60
2018-12-31T04:01:03.502Z,5.50
2018-12-31T04:03:30.282Z,4.60
2018-12-31T04:06:10.320Z,4.70
2018-12-31T04:08:49.854Z,4.50
2018-12-31T04:11:30.011Z,4.70
2018-12-31T04:14:10.008Z,5.50
2018-12-31T04:16:50.141Z,4.30
2018-12-31T04:19:17.032Z,4.60
2018-12-31T04:22:03.422Z,4.70
2018-12-31T04:24:49.831Z,4.70
2018-12-31T04:27:36.349Z,4.70
2018-12-31T04:30:23.098Z,5.20
2018-12-31T04:33:09.494Z,4.70
2018-12-31T04:35:55.902Z,4.40
2018-12-31T04:38:42.298Z,5.50
2018-12-31T04:41:29.263Z,4.30
2018-12-31T04:44:15.732Z,4.40
2018-12-31T04:47:02.139Z,4.40
2018-12-31T04:49:29.099Z,4.60
2018-12-31T04:52:15.521Z,4.70
2018-12-31T04:55:02.082Z,4.70
2018-12-31T04:57:48.869Z,4.70
2018-12-31T05:00:35.422Z,4.70
2018-12-31T05:03:22.188Z,4.70
2018-12-31T05:06:01.438Z,3.90
2018-12-31T05:08:41.355Z,5.00
2018-12-31T05:11:21.760Z,4.10
2018-12-31T05:14:01.883Z,4.70
2018-12-31T05:16:41.959Z,4.60
2018-12-31T05:19:21.726Z,4.50
2018-12-31T05:22:00.995Z,4.80
2018-12-31T05:24:40.928Z,5.10
2018-12-31T05:27:21.289Z,5.60
2018-12-31T05:30:01.070Z,4.80
2018-12-31T05:32:40.983Z,4.80
2018-12-31T05:35:21.351Z,4.70
2018-12-31T05:38:01.262Z,4.70
2018-12-31T05:40:40.775Z,6.10
2018-12-31T05:43:20.653Z,4.30
2018-12-31T05:46:01.034Z,4.70
2018-12-31T05:48:40.863Z,4.80
2018-12-31T05:51:21.081Z,5.60
2018-12-31T05:54:00.990Z,4.80
2018-12-31T05:56:40.399Z,4.80
2018-12-31T05:59:20.239Z,6.70
2018-12-31T06:02:00.550Z,4.60
2018-12-31T06:04:40.435Z,4.70
2018-12-31T06:07:20.607Z,5.00
2018-12-31T06:10:00.779Z,4.60
2018-12-31T06:12:40.319Z,4.70
2018-12-31T06:15:20.406Z,4.80
2018-12-31T06:18:00.177Z,4.70
2018-12-31T06:20:40.210Z,4.30
2018-12-31T06:23:22.074Z,6.30
2018-12-31T06:26:01.839Z,4.80
2018-12-31T06:28:42.349Z,4.80
2018-12-31T06:31:22.050Z,4.70
2018-12-31T06:34:01.998Z,4.70
2018-12-31T06:36:42.326Z,5.90
2018-12-31T06:39:22.447Z,4.80
2018-12-31T06:42:02.422Z,4.70
2018-12-31T06:44:42.543Z,4.60
2018-12-31T06:47:22.306Z,6.10
2018-12-31T06:50:01.880Z,6.30
2018-12-31T06:52:42.054Z,4.40
2018-12-31T06:55:22.139Z,5.50
2018-12-31T06:58:01.539Z,4.70
2018-12-31T07:00:40.795Z,4.70
2018-12-31T07:03:20.908Z,4.50
2018-12-31T07:06:00.937Z,4.60
2018-12-31T07:08:40.751Z,4.50
2018-12-31T07:11:20.993Z,3.80
2018-12-31T07:14:01.323Z,4.50
2018-12-31T07:16:41.270Z,4.40
2018-12-31T07:19:21.543Z,5.30
2018-12-31T07:22:01.363Z,5.10
2018-12-31T07:24:41.797Z,4.70
2018-12-31T07:27:21.723Z,4.90
2018-12-31T07:30:01.587Z,4.70
2018-12-31T07:32:28.791Z,4.50
2018-12-31T07:35:15.274Z,4.50
2018-12-31T07:38:02.036Z,5.00
2018-12-31T07:40:48.593Z,4.00
2018-12-31T07:43:35.807Z,4.50
2018-12-31T07:49:11.378Z,4.60
2018-12-31T07:51:57.776Z,4.60
2018-12-31T07:54:44.898Z,4.50
2018-12-31T07:57:31.851Z,4.00
2018-12-31T08:00:18.360Z,5.50
2018-12-31T08:03:05.029Z,4.80
2018-12-31T08:05:44.609Z,4.30
2018-12-31T08:08:24.402Z,5.10
2018-12-31T08:11:04.680Z,4.20
2018-12-31T08:13:44.893Z,4.70
2018-12-31T08:16:24.545Z,4.80
2018-12-31T08:19:04.445Z,4.70
2018-12-31T08:21:31.493Z,5.00
2018-12-31T08:27:04.853Z,5.00
2018-12-31T08:29:51.807Z,4.60
2018-12-31T08:32:38.468Z,5.20
2018-12-31T08:35:25.123Z,4.90
2018-12-31T08:38:11.779Z,4.90
2018-12-31T08:40:58.545Z,4.90
2018-12-31T08:43:45.356Z,5.00
2018-12-31T08:46:31.963Z,5.10
2018-12-31T08:48:59.089Z,4.90
2018-12-31T08:51:46.013Z,5.10
2018-12-31T08:54:32.571Z,4.20
2018-12-31T08:57:19.497Z,5.10
2018-12-31T09:00:06.321Z,5.30
2018-12-31T09:02:53.073Z,6.10
2018-12-31T09:05:33.201Z,5.70
2018-12-31T09:08:13.490Z,5.20
2018-12-31T09:10:53.794Z,4.70
2018-12-31T09:13:33.634Z,5.20
2018-12-31T09:16:13.822Z,5.10
2018-12-31T09:18:53.990Z,5.30
2018-12-31T09:21:34.175Z,5.40
2018-12-31T09:24:14.384Z,5.70
2018-12-31T09:26:54.310Z,6.70
2018-12-31T09:29:34.434Z,6.60
2018-12-31T09:32:14.751Z,5.20
2018-12-31T09:34:55.107Z,5.30
2018-12-31T09:37:34.566Z,6.20
2018-12-31T09:40:14.871Z,4.60
2018-12-31T09:42:54.938Z,5.40
2018-12-31T09:45:34.677Z,5.90
2018-12-31T09:48:01.890Z,5.20
2018-12-31T09:50:48.534Z,5.50
2018-12-31T09:53:35.334Z,5.70
2018-12-31T09:56:22.038Z,5.00
2018-12-31T09:59:08.981Z,6.90
2018-12-31T10:01:55.633Z,5.30
2018-12-31T10:04:42.322Z,4.90
2018-12-31T10:07:28.979Z,5.50
2018-12-31T10:10:15.734Z,5.50
2018-12-31T10:13:02.389Z,5.50
2018-12-31T10:15:48.907Z,7.00
2018-12-31T10:18:35.816Z,7.50
2018-12-31T10:21:22.589Z,7.10
2018-12-31T10:24:08.977Z,6.10
2018-12-31T10:26:55.642Z,5.70
2018-12-31T10:29:42.066Z,5.70
2018-12-31T10:32:29.101Z,5.60
2018-12-31T10:35:15.842Z,5.00
2018-12-31T10:38:02.545Z,6.00
2018-12-31T10:40:49.185Z,5.90
2018-12-31T10:43:35.822Z,5.80
2018-12-31T10:46:22.588Z,6.20
2018-12-31T10:49:09.243Z,6.20
2018-12-31T10:51:55.671Z,5.80
2018-12-31T10:54:42.329Z,5.90
2018-12-31T10:57:28.857Z,5.80
2018-12-31T11:00:15.533Z,5.00
2018-12-31T11:03:02.313Z,5.60
2018-12-31T11:05:41.990Z,6.00
2018-12-31T11:08:21.232Z,5.80
2018-12-31T11:11:01.399Z,5.50
2018-12-31T11:13:41.849Z,5.90
2018-12-31T11:16:21.703Z,5.40
2018-12-31T11:19:01.190Z,5.30
2018-12-31T11:21:41.374Z,6.00
2018-12-31T11:24:21.595Z,5.10
2018-12-31T11:27:01.653Z,6.50
2018-12-31T11:29:41.483Z,6.00
2018-12-31T11:32:20.713Z,5.80
2018-12-31T11:35:00.658Z,5.80
2018-12-31T11:37:34.449Z,5.90
2018-12-31T11:40:15.783Z,6.00
2018-12-31T11:43:02.187Z,6.00
2018-12-31T11:45:48.693Z,6.10
2018-12-31T11:48:35.357Z,6.10
2018-12-31T11:54:08.318Z,6.10
2018-12-31T11:56:54.726Z,6.60
2018-12-31T11:59:41.154Z,6.30
2018-12-31T12:02:27.666Z,6.30
2018-12-31T12:05:06.990Z,6.30
2018-12-31T12:07:46.608Z,6.30
2018-12-31T12:10:26.378Z,6.00
2018-12-31T12:13:05.553Z,6.10
2018-12-31T12:15:44.695Z,6.10
2018-12-31T12:18:25.195Z,6.40
2018-12-31T12:21:05.098Z,6.30
2018-12-31T12:23:45.190Z,6.30
2018-12-31T12:26:24.522Z,6.50
2018-12-31T12:29:06.630Z,6.30
2018-12-31T12:31:46.514Z,5.70
2018-12-31T12:37:24.917Z,6.70
2018-12-31T12:39:51.702Z,7.30
2018-12-31T12:42:38.486Z,6.90
2018-12-31T12:45:25.197Z,6.80
2018-12-31T12:48:11.619Z,6.70
2018-12-31T12:51:00.054Z,6.50
2018-12-31T12:53:46.815Z,7.00
2018-12-31T12:56:33.327Z,6.70
2018-12-31T12:59:19.751Z,7.10
2018-12-31T13:02:06.428Z,6.40
2018-12-31T13:04:53.146Z,6.40
2018-12-31T13:07:39.541Z,6.50
2018-12-31T13:10:25.948Z,6.40
2018-12-31T13:13:12.340Z,6.50
2018-12-31T13:15:58.853Z,6.10
2018-12-31T13:18:45.354Z,6.70
2018-12-31T13:21:31.797Z,5.90
2018-12-31T13:24:18.935Z,6.60
2018-12-31T13:27:06.647Z,7.10
2018-12-31T13:29:53.202Z,5.90
2018-12-31T13:32:39.768Z,6.30
2018-12-31T13:35:26.369Z,6.60
2018-12-31T13:38:13.018Z,6.60
2018-12-31T13:40:59.757Z,6.60
2018-12-31T13:43:46.488Z,6.60
2018-12-31T13:46:32.974Z,7.00
2018-12-31T13:49:19.414Z,6.90
2018-12-31T13:52:05.841Z,6.10
2018-12-31T13:54:52.440Z,7.10
2018-12-31T13:57:38.869Z,6.90
2018-12-31T14:00:25.273Z,6.80
2018-12-31T14:02:54.057Z,6.70
2018-12-31T14:05:33.273Z,6.90
2018-12-31T14:08:12.579Z,7.10
2018-12-31T14:10:39.630Z,8.70
2018-12-31T14:13:26.234Z,6.80
2018-12-31T14:16:12.812Z,6.60
2018-12-31T14:19:01.391Z,7.50
2018-12-31T14:21:47.793Z,7.50
2018-12-31T14:27:41.454Z,6.10
2018-12-31T14:36:01.115Z,6.90
2018-12-31T14:38:47.703Z,7.50
2018-12-31T14:41:34.726Z,8.20
2018-12-31T14:44:01.700Z,6.70
2018-12-31T14:46:48.242Z,7.00
2018-12-31T14:49:34.682Z,6.90
2018-12-31T14:52:01.699Z,7.00
2018-12-31T14:54:28.594Z,6.90
2018-12-31T14:57:15.031Z,6.80
2018-12-31T15:00:01.599Z,6.70
2018-12-31T15:02:48.040Z,6.10
2018-12-31T15:05:15.056Z,7.20
2018-12-31T15:07:54.810Z,6.60
2018-12-31T15:10:35.120Z,6.60
2018-12-31T15:13:01.926Z,6.60
2018-12-31T15:15:48.446Z,6.60
2018-12-31T15:18:35.123Z,6.60
2018-12-31T15:21:21.651Z,6.60
2018-12-31T15:24:08.206Z,6.60
2018-12-31T15:29:24.611Z,6.60
2018-12-31T15:32:11.276Z,6.50
2018-12-31T15:34:57.820Z,6.60
2018-12-31T15:37:44.405Z,6.50
2018-12-31T15:40:30.859Z,5.70
2018-12-31T15:43:17.568Z,5.90
2018-12-31T15:48:59.655Z,6.70
2018-12-31T15:51:46.307Z,5.20
2018-12-31T15:54:32.976Z,6.60
2018-12-31T15:57:00.333Z,6.70
2018-12-31T15:59:46.868Z,6.50
2018-12-31T16:02:33.365Z,8.00
2018-12-31T16:05:19.808Z,6.60
2018-12-31T16:10:49.157Z,6.90
2018-12-31T16:13:16.166Z,6.60
2018-12-31T16:16:02.693Z,6.60
2018-12-31T16:18:49.639Z,6.60
2018-12-31T16:21:36.107Z,7.00
2018-12-31T16:24:22.643Z,6.40
2018-12-31T16:27:09.275Z,6.20
2018-12-31T16:29:57.600Z,7.70
2018-12-31T16:32:44.450Z,6.40
2018-12-31T16:35:31.150Z,6.50
2018-12-31T16:37:58.306Z,6.50
2018-12-31T16:40:44.846Z,6.50
2018-12-31T16:43:12.057Z,6.30
2018-12-31T16:45:38.993Z,6.50
2018-12-31T16:48:25.554Z,6.50
2018-12-31T16:51:12.251Z,6.20
2018-12-31T16:53:58.998Z,6.40
2018-12-31T16:56:45.838Z,7.10
2018-12-31T16:59:32.413Z,6.50
2018-12-31T17:02:19.224Z,6.50
2018-12-31T17:05:05.848Z,6.40
2018-12-31T17:07:45.411Z,7.30
2018-12-31T17:10:25.494Z,6.50
2018-12-31T17:13:05.747Z,6.60
2018-12-31T17:15:45.759Z,6.40
2018-12-31T17:18:26.220Z,7.00
2018-12-31T17:20:54.720Z,6.40
2018-12-31T17:23:41.448Z,6.40
2018-12-31T17:26:28.094Z,6.50
2018-12-31T17:29:14.651Z,6.10
2018-12-31T17:32:01.176Z,6.50
2018-12-31T17:34:47.724Z,6.60
2018-12-31T17:37:34.275Z,5.90
2018-12-31T17:40:20.892Z,6.50
2018-12-31T17:43:07.770Z,6.90
2018-12-31T17:45:54.352Z,6.60
2018-12-31T17:48:55.219Z,6.50
2018-12-31T17:51:31.520Z,6.50
2018-12-31T17:54:18.337Z,6.40
2018-12-31T17:57:07.007Z,7.00
2018-12-31T17:59:34.160Z,6.50
2018-12-31T18:02:20.856Z,6.50
2018-12-31T18:05:07.411Z,6.10
2018-12-31T18:07:46.816Z,6.70
2018-12-31T18:10:26.091Z,6.50
2018-12-31T18:13:05.909Z,6.50
2018-12-31T18:15:32.998Z,6.50
2018-12-31T18:18:00.016Z,6.60
2018-12-31T18:20:46.841Z,6.50
2018-12-31T18:23:14.977Z,6.10
2018-12-31T18:26:01.515Z,6.50
2018-12-31T18:28:48.044Z,6.50
2018-12-31T18:31:34.478Z,6.60
2018-12-31T18:34:23.172Z,6.30
2018-12-31T18:37:09.707Z,6.50
2018-12-31T18:39:58.101Z,6.60
2018-12-31T18:42:44.727Z,6.90
2018-12-31T18:45:31.148Z,6.40
2018-12-31T18:48:17.708Z,6.40
2018-12-31T18:51:04.176Z,6.90
2018-12-31T18:53:51.187Z,6.70
2018-12-31T18:56:37.728Z,6.50
2018-12-31T18:59:24.528Z,6.10
2018-12-31T19:02:30.959Z,6.50
2018-12-31T19:05:17.364Z,6.50
2018-12-31T19:07:57.661Z,7.00
2018-12-31T19:16:35.808Z,6.60
2018-12-31T19:19:03.785Z,6.50
2018-12-31T19:21:54.552Z,6.40
2018-12-31T19:24:41.386Z,7.90
2018-12-31T19:27:27.809Z,6.00
2018-12-31T19:29:54.948Z,6.40
2018-12-31T19:32:41.706Z,6.40
2018-12-31T19:35:30.404Z,6.70
2018-12-31T19:37:57.186Z,6.50
2018-12-31T19:40:43.706Z,6.30
2018-12-31T19:43:11.417Z,6.20
2018-12-31T19:45:58.067Z,6.30
2018-12-31T19:48:44.512Z,6.40
2018-12-31T19:51:31.035Z,6.40
2018-12-31T19:54:17.975Z,6.30
2018-12-31T19:57:04.608Z,6.50
2018-12-31T19:59:51.038Z,6.50
2018-12-31T20:02:38.115Z,6.40
2018-12-31T20:05:24.792Z,6.20
2018-12-31T20:08:04.255Z,6.70
2018-12-31T20:10:44.172Z,6.70
2018-12-31T20:13:23.485Z,6.60
2018-12-31T20:16:03.562Z,6.50
2018-12-31T20:21:55.126Z,6.40
2018-12-31T20:24:35.599Z,6.70
2018-12-31T20:27:02.534Z,6.70
2018-12-31T20:29:50.889Z,6.40
2018-12-31T20:32:37.494Z,5.50
2018-12-31T20:35:24.325Z,6.40
2018-12-31T20:37:51.378Z,6.60
2018-12-31T20:40:38.037Z,6.40
2018-12-31T20:43:24.714Z,6.50
2018-12-31T20:46:11.252Z,6.20
2018-12-31T20:48:57.763Z,7.20
2018-12-31T20:51:44.858Z,6.10
2018-12-31T20:54:31.536Z,6.40
2018-12-31T20:57:18.092Z,7.20
2018-12-31T21:00:05.500Z,5.90
2018-12-31T21:02:54.290Z,7.10
2018-12-31T21:05:21.425Z,6.00
2018-12-31T21:08:08.331Z,6.40
2018-12-31T21:10:35.415Z,6.70
2018-12-31T21:13:03.062Z,6.40
2018-12-31T21:15:29.990Z,6.50
2018-12-31T21:18:16.535Z,6.50
2018-12-31T21:21:03.150Z,6.50
2018-12-31T21:23:49.734Z,6.90
2018-12-31T21:26:36.296Z,6.80
2018-12-31T21:29:23.246Z,6.50
2018-12-31T21:31:50.380Z,6.50
2018-12-31T21:34:37.209Z,6.50
2018-12-31T21:37:23.894Z,6.50
2018-12-31T21:40:10.518Z,8.00
2018-12-31T21:42:57.183Z,6.50
2018-12-31T21:45:43.909Z,6.40
2018-12-31T21:48:30.534Z,6.40
2018-12-31T21:51:17.069Z,6.30
2018-12-31T21:54:03.965Z,6.50
2018-12-31T21:56:50.420Z,7.40
2018-12-31T21:59:36.852Z,6.50
2018-12-31T22:02:04.051Z,6.90
2018-12-31T22:04:50.667Z,6.40
2018-12-31T22:07:30.543Z,6.40
2018-12-31T22:10:09.940Z,5.70
2018-12-31T22:12:49.787Z,6.40
2018-12-31T22:15:29.960Z,6.00
2018-12-31T22:17:56.737Z,6.40
2018-12-31T22:20:43.843Z,6.40
2018-12-31T22:23:10.937Z,6.40
2018-12-31T22:25:57.355Z,6.40
2018-12-31T22:28:44.108Z,6.40
2018-12-31T22:31:30.914Z,6.50
2018-12-31T22:34:17.546Z,6.40
2018-12-31T22:37:03.975Z,7.10
2018-12-31T22:39:50.509Z,6.50
2018-12-31T22:42:37.699Z,6.10
2018-12-31T22:45:24.244Z,6.40
2018-12-31T22:48:10.680Z,6.00
2018-12-31T22:50:37.482Z,6.70
2018-12-31T22:53:24.468Z,6.30
2018-12-31T22:56:11.535Z,6.60
2018-12-31T22:58:58.240Z,7.20
2018-12-31T23:01:44.913Z,6.40
2018-12-31T23:04:31.542Z,6.30
2018-12-31T23:07:10.983Z,6.40
2018-12-31T23:09:41.431Z,6.40
2018-12-31T23:12:26.534Z,6.40
2018-12-31T23:15:14.895Z,6.40
2018-12-31T23:18:01.347Z,6.20
2018-12-31T23:20:48.295Z,6.10
2018-12-31T23:23:35.360Z,6.50
2018-12-31T23:26:22.057Z,6.40
2018-12-31T23:29:08.929Z,6.40
2018-12-31T23:31:55.422Z,6.50
2018-12-31T23:34:41.845Z,6.30
2018-12-31T23:37:28.531Z,6.80
2018-12-31T23:40:15.432Z,6.40
2018-12-31T23:43:06.303Z,6.40
2018-12-31T23:45:50.885Z,6.50
2018-12-31T23:51:25.576Z,6.40
2018-12-31T23:54:12.188Z,6.50
2018-12-31T23:56:58.634Z,6.30
2018-12-31T23:59:45.172Z,6.10
